Time;durP1;ratioP1;P1;durP2;ratioP2;P2;SDS_P1;SDS_P2;PMS_P1;PMS_P2;Temp;Humidity;BMP_temperature;BMP_pressure;BME280_temperature;BME280_humidity;BME280_pressure;Samples;Min_cycle;Max_cycle;Signal;HPM_P1;HPM_P2
2021/08/14 00:00:48;;;;;;;15.60;8.50;;;;;;;20.59;55.21;101216.39;117535;1186;23630;-81
2021/08/14 00:03:16;;;;;;;12.90;8.40;;;;;;;20.54;55.34;101220.48;117594;1182;23551;-80
2021/08/14 00:05:45;;;;;;;16.90;8.60;;;;;;;20.57;55.26;101217.54;117543;1183;21863;-81
2021/08/14 00:08:13;;;;;;;12.20;8.10;;;;;;;20.57;55.22;101217.00;117533;1185;22265;-81
2021/08/14 00:11:01;;;;;;;12.60;8.40;;;;;;;20.56;55.27;101215.43;117590;1185;22982;-81
2021/08/14 00:13:29;;;;;;;11.60;8.30;;;;;;;20.55;55.28;101213.17;117356;1182;22911;-81
2021/08/14 00:15:59;;;;;;;13.20;8.00;;;;;;;20.53;55.32;101214.49;117550;1185;23560;-81
2021/08/14 00:18:47;;;;;;;12.00;7.90;;;;;;;20.49;55.42;101216.60;117521;1186;22911;-81
2021/08/14 00:21:15;;;;;;;12.00;8.30;;;;;;;20.48;55.49;101214.88;117600;1185;22928;-81
2021/08/14 00:23:45;;;;;;;;;;;;;;;20.47;55.54;101211.69;117552;1182;23544;-81
2021/08/14 00:26:13;;;;;;;11.90;7.50;;;;;;;20.46;55.56;101218.50;117536;1186;23563;-81
2021/08/14 00:28:48;;;;;;;14.80;8.00;;;;;;;20.46;55.63;101219.05;117522;1179;23538;-81
2021/08/14 00:31:17;;;;;;;11.60;8.20;;;;;;;20.44;55.66;101222.34;117521;1185;21857;-81
2021/08/14 00:33:47;;;;;;;13.80;7.80;;;;;;;20.43;55.74;101221.86;117464;1182;23537;-81
2021/08/14 00:36:16;;;;;;;11.90;8.00;;;;;;;20.41;55.72;101223.19;117531;1180;23615;-81
2021/08/14 00:38:45;;;;;;;11.70;7.40;;;;;;;20.42;55.75;101226.52;117530;1182;23538;-81
2021/08/14 00:41:13;;;;;;;12.20;7.90;;;;;;;20.41;55.84;101229.77;117578;1185;21860;-81
2021/08/14 00:43:41;;;;;;;11.00;7.80;;;;;;;20.38;55.82;101231.30;117525;1185;21867;-81
2021/08/14 00:46:09;;;;;;;13.00;8.10;;;;;;;20.92;54.50;101228.20;117442;1182;22902;-81
2021/08/14 00:48:37;;;;;;;14.10;7.60;;;;;;;21.46;53.12;101227.35;117508;1185;21861;-81
2021/08/14 00:51:07;;;;;;;14.10;7.50;;;;;;;20.95;54.11;101231.30;117523;1183;23545;-81
2021/08/14 00:53:37;;;;;;;11.70;7.60;;;;;;;20.94;54.23;101229.05;117597;1185;23554;-81
2021/08/14 00:56:05;;;;;;;13.80;7.40;;;;;;;20.58;54.96;101229.11;117566;1185;21854;-81
2021/08/14 00:58:34;;;;;;;15.40;7.80;;;;;;;20.71;54.76;101230.14;117408;1186;21856;-80
2021/08/14 01:01:03;;;;;;;11.20;7.90;;;;;;;20.42;55.38;101228.84;117565;1182;21912;-81
2021/08/14 01:03:31;;;;;;;13.00;7.50;;;;;;;20.31;55.65;101226.61;117537;1183;21887;-81
2021/08/14 01:06:00;;;;;;;13.50;8.70;;;;;;;20.26;55.87;101225.03;117581;1185;23580;-81
2021/08/14 01:08:28;;;;;;;11.40;7.80;;;;;;;20.20;55.89;101225.05;117549;1179;23890;-81
2021/08/14 01:10:58;;;;;;;11.50;7.40;;;;;;;20.22;55.88;101221.94;117524;1178;23427;-81
2021/08/14 01:13:45;;;;;;;12.30;7.70;;;;;;;20.21;55.85;101220.02;117456;1182;23541;-81
2021/08/14 01:16:13;;;;;;;11.90;7.30;;;;;;;20.19;55.93;101219.89;117334;1187;21858;-81
2021/08/14 01:18:45;;;;;;;14.60;8.40;;;;;;;20.23;55.90;101219.77;117199;1188;22218;-81
2021/08/14 01:21:19;;;;;;;11.40;7.80;;;;;;;20.21;55.94;101221.11;117333;1186;23089;-81
2021/08/14 01:23:48;;;;;;;12.30;7.50;;;;;;;20.19;55.99;101222.06;117496;1185;23538;-82
2021/08/14 01:26:17;;;;;;;11.20;6.60;;;;;;;20.21;55.96;101217.74;117414;1182;22976;-82
2021/08/14 01:28:45;;;;;;;10.70;6.90;;;;;;;20.16;56.16;101214.88;117582;1185;22921;-81
2021/08/14 01:31:14;;;;;;;10.20;7.60;;;;;;;20.19;56.08;101213.69;117398;1182;23221;-81
2021/08/14 01:33:43;;;;;;;13.90;8.40;;;;;;;20.16;56.19;101210.63;117556;1182;23538;-82
2021/08/14 01:36:13;;;;;;;11.10;7.60;;;;;;;20.14;56.30;101208.55;117355;1186;21850;-81
2021/08/14 01:38:53;;;;;;;10.40;6.90;;;;;;;20.13;56.41;101208.23;117639;1185;21862;-81
2021/08/14 01:41:22;;;;;;;12.10;8.40;;;;;;;20.14;56.38;101208.71;117516;1185;23586;-81
2021/08/14 01:44:00;;;;;;;10.50;6.60;;;;;;;20.16;56.38;101207.91;117561;1185;21858;-81
2021/08/14 01:46:30;;;;;;;13.20;7.30;;;;;;;20.16;56.39;101210.77;117571;1182;23540;-82
2021/08/14 01:48:58;;;;;;;10.00;7.30;;;;;;;20.27;56.06;101209.98;117581;1182;22525;-82
2021/08/14 01:51:28;;;;;;;11.10;7.20;;;;;;;20.26;56.04;101208.80;117563;1182;21912;-82
2021/08/14 01:53:59;;;;;;;13.50;7.30;;;;;;;20.17;56.33;101208.61;117551;1182;23566;-82
2021/08/14 01:56:27;;;;;;;13.30;8.10;;;;;;;20.35;55.89;101206.28;117587;1182;22093;-81
2021/08/14 01:58:56;;;;;;;12.60;7.80;;;;;;;20.20;56.23;101205.29;117433;1182;23538;-82
2021/08/14 02:01:26;;;;;;;9.80;7.00;;;;;;;20.18;56.29;101205.55;117396;1185;21863;-82
2021/08/14 02:03:55;;;;;;;12.10;7.70;;;;;;;20.06;56.60;101203.52;117412;1186;21873;-82
2021/08/14 02:06:25;;;;;;;10.30;7.50;;;;;;;20.00;56.71;101202.87;117397;1182;22956;-82
2021/08/14 02:08:54;;;;;;;11.70;7.50;;;;;;;19.98;56.77;101202.05;117348;1186;23560;-81
2021/08/14 02:11:42;;;;;;;11.70;7.60;;;;;;;19.98;56.79;101200.26;117380;1186;23462;-82
2021/08/14 02:14:10;;;;;;;11.30;7.80;;;;;;;19.98;56.85;101202.94;117404;1186;22807;-81
2021/08/14 02:16:40;;;;;;;10.70;6.70;;;;;;;19.98;56.87;101200.63;117423;1186;23537;-82
2021/08/14 02:19:08;;;;;;;12.30;7.20;;;;;;;19.97;56.90;101200.86;117474;1185;22929;-81
2021/08/14 02:21:36;;;;;;;13.00;7.20;;;;;;;20.00;56.81;101199.63;117545;1182;21858;-82
2021/08/14 02:24:05;;;;;;;10.60;7.30;;;;;;;19.93;56.88;101200.44;117365;1182;23559;-81
2021/08/14 02:26:40;;;;;;;12.00;8.00;;;;;;;19.90;57.01;101199.83;117524;1185;23561;-82
2021/08/14 02:29:08;;;;;;;9.90;6.50;;;;;;;19.87;57.11;101202.98;117528;1176;23449;-82
2021/08/14 02:31:37;;;;;;;12.80;7.30;;;;;;;19.84;57.18;101202.52;117528;1185;23538;-82
2021/08/14 02:34:05;;;;;;;11.20;7.00;;;;;;;19.83;57.21;101202.59;117517;1176;23534;-82
2021/08/14 02:36:33;;;;;;;11.20;7.40;;;;;;;19.88;57.12;101203.11;117568;1185;21879;-81
2021/08/14 02:39:05;;;;;;;11.40;6.70;;;;;;;19.81;57.19;101201.78;117503;1185;23874;-81
2021/08/14 02:41:33;;;;;;;32.50;7.40;;;;;;;19.73;57.46;101202.23;117336;1188;21857;-81
2021/08/14 02:44:02;;;;;;;15.00;6.90;;;;;;;19.77;57.34;101201.73;117519;1182;22276;-82
2021/08/14 02:46:30;;;;;;;20.80;7.50;;;;;;;19.78;57.31;101203.66;117581;1182;22938;-81
2021/08/14 02:48:59;;;;;;;13.30;7.70;;;;;;;19.80;57.32;101204.15;117436;1179;21866;-81
2021/08/14 02:51:27;;;;;;;10.30;6.70;;;;;;;19.83;57.20;101204.54;117531;1183;21881;-81
2021/08/14 02:53:55;;;;;;;41.30;8.90;;;;;;;19.84;57.16;101205.38;117583;1185;21858;-82
2021/08/14 02:56:23;;;;;;;26.20;8.90;;;;;;;19.95;56.95;101203.75;117410;1186;21860;-82
2021/08/14 02:58:51;;;;;;;22.00;7.90;;;;;;;19.85;57.16;101207.14;117504;1186;21857;-82
2021/08/14 03:01:19;;;;;;;11.40;7.40;;;;;;;19.78;57.36;101203.83;117474;1179;21855;-82
2021/08/14 03:04:00;;;;;;;13.20;6.80;;;;;;;19.71;57.55;101203.19;117550;1183;22911;-82
2021/08/14 03:06:29;;;;;;;15.70;7.70;;;;;;;19.67;57.73;101204.06;117390;1186;21964;-81
2021/08/14 03:08:59;;;;;;;10.20;6.80;;;;;;;19.65;57.79;101205.21;117526;1185;23560;-82
2021/08/14 03:11:27;;;;;;;11.10;6.90;;;;;;;19.65;57.87;101204.86;117462;1185;21861;-81
2021/08/14 03:14:08;;;;;;;14.20;6.60;;;;;;;19.65;57.86;101206.98;117611;1185;21885;-81
2021/08/14 03:16:56;;;;;;;19.60;7.20;;;;;;;19.70;57.90;101206.98;117492;1185;23665;-82
2021/08/14 03:19:25;;;;;;;11.30;6.90;;;;;;;19.70;57.98;101206.44;117529;1185;23564;-81
2021/08/14 03:21:53;;;;;;;65.80;11.10;;;;;;;19.70;58.10;101208.94;117510;1184;22932;-82
2021/08/14 03:24:41;;;;;;;21.50;7.40;;;;;;;19.72;58.11;101211.37;117548;1185;22964;-81
2021/08/14 03:27:15;;;;;;;14.30;7.70;;;;;;;19.75;58.06;101210.88;117519;1185;22928;-82
2021/08/14 03:29:44;;;;;;;13.60;6.80;;;;;;;19.75;58.10;101209.46;117494;1185;23582;-82
2021/08/14 03:32:12;;;;;;;13.50;7.10;;;;;;;19.78;58.24;101212.55;117537;1185;21891;-82
2021/08/14 03:34:54;;;;;;;9.90;6.40;;;;;;;19.82;58.25;101214.90;117438;1186;23537;-81
2021/08/14 03:37:22;;;;;;;15.60;6.80;;;;;;;19.81;58.33;101214.05;117510;1186;21868;-82
2021/08/14 03:39:51;;;;;;;9.90;6.20;;;;;;;19.82;58.56;101210.09;117297;1187;22297;-82
2021/08/14 03:42:39;;;;;;;10.30;6.60;;;;;;;19.88;58.53;101214.85;117554;1185;21857;-82
2021/08/14 03:45:08;;;;;;;17.40;7.20;;;;;;;19.92;58.57;101215.25;117511;1184;22903;-82
2021/08/14 03:47:39;;;;;;;13.10;6.90;;;;;;;19.99;58.68;101217.15;117562;1185;24041;-82
2021/08/14 03:50:07;;;;;;;10.20;6.20;;;;;;;20.05;58.70;101219.60;117412;1185;23537;-82
2021/08/14 03:52:36;;;;;;;10.30;6.80;;;;;;;20.10;58.74;101214.58;117468;1185;23587;-82
2021/08/14 03:55:24;;;;;;;14.80;7.00;;;;;;;20.16;58.76;101217.18;117532;1185;23296;-82
2021/08/14 03:57:52;;;;;;;9.40;6.80;;;;;;;20.20;58.78;101216.87;117487;1185;21858;-81
2021/08/14 04:00:20;;;;;;;9.40;6.30;;;;;;;20.26;58.87;101218.41;117550;1185;23535;-82
2021/08/14 04:02:55;;;;;;;12.50;6.80;;;;;;;20.35;58.90;101218.60;117529;1182;22256;-83
2021/08/14 04:05:25;;;;;;;10.60;6.50;;;;;;;20.43;58.93;101215.80;118581;1183;21901;-83
2021/08/14 04:07:54;;;;;;;10.40;6.50;;;;;;;20.51;58.90;101218.33;117757;1185;22819;-82
2021/08/14 04:10:22;;;;;;;11.60;6.50;;;;;;;20.59;58.84;101216.39;117543;1185;23537;-82
2021/08/14 04:12:51;;;;;;;15.00;7.30;;;;;;;20.66;58.86;101219.16;117528;1181;23539;-83
2021/08/14 04:15:21;;;;;;;11.30;7.00;;;;;;;20.74;58.78;101222.91;117576;1185;22655;-82
2021/08/14 04:17:49;;;;;;;11.80;7.10;;;;;;;20.82;58.76;101224.77;117648;1185;21859;-82
2021/08/14 04:20:28;;;;;;;10.90;6.50;;;;;;;20.93;58.71;101220.89;117491;1182;23537;-82
2021/08/14 04:22:56;;;;;;;12.60;6.80;;;;;;;21.03;58.71;101221.71;117359;1187;23523;-82
2021/08/14 04:25:25;;;;;;;15.50;7.20;;;;;;;21.20;58.35;101223.51;117495;1184;21856;-82
2021/08/14 04:27:54;;;;;;;12.50;6.80;;;;;;;21.29;58.23;101223.84;117555;1186;23994;-83
2021/08/14 04:30:22;;;;;;;11.80;6.20;;;;;;;21.33;58.07;101224.52;117563;1185;22537;-82
2021/08/14 04:32:53;;;;;;;13.70;7.40;;;;;;;21.42;58.04;101228.63;117553;1183;22934;-83
2021/08/14 04:35:22;;;;;;;14.80;7.00;;;;;;;21.50;58.00;101231.46;117538;1183;22811;-83
2021/08/14 04:37:50;;;;;;;13.40;6.90;;;;;;;21.64;57.85;101230.32;117405;1185;23672;-83
2021/08/14 04:40:19;;;;;;;23.80;8.20;;;;;;;21.80;57.70;101230.18;117505;1185;23538;-83
2021/08/14 04:42:49;;;;;;;15.80;7.30;;;;;;;21.96;57.28;101234.08;117532;1182;22652;-83
2021/08/14 04:45:19;;;;;;;18.70;8.20;;;;;;;22.14;57.01;101234.65;117444;1186;23945;-83
2021/08/14 04:47:50;;;;;;;11.50;7.40;;;;;;;22.30;56.85;101232.82;117521;1179;23441;-83
2021/08/14 04:50:19;;;;;;;16.50;8.10;;;;;;;22.41;56.64;101233.74;117536;1185;23640;-83
2021/08/14 04:52:47;;;;;;;12.50;7.80;;;;;;;22.52;56.53;101232.13;117503;1182;22243;-82
2021/08/14 04:55:16;;;;;;;17.80;7.30;;;;;;;22.65;56.26;101234.55;117546;1182;23537;-83
2021/08/14 04:57:45;;;;;;;14.80;7.80;;;;;;;22.76;55.78;101235.08;117567;1182;23547;-83
2021/08/14 05:00:14;;;;;;;13.70;7.50;;;;;;;22.86;55.57;101233.15;117541;1185;21855;-83
2021/08/14 05:02:42;;;;;;;12.90;7.10;;;;;;;22.99;55.70;101232.86;117554;1185;22620;-83
2021/08/14 05:05:10;;;;;;;13.70;7.80;;;;;;;23.12;55.59;101232.20;117634;1185;22319;-84
2021/08/14 05:07:40;;;;;;;15.40;6.80;;;;;;;23.23;55.40;101228.98;117561;1185;23529;-83
2021/08/14 05:10:12;;;;;;;11.60;6.80;;;;;;;23.37;54.80;101230.77;117537;1183;21914;-83
2021/08/14 05:12:40;;;;;;;10.30;7.20;;;;;;;23.47;54.58;101230.95;117524;1185;21858;-83
2021/08/14 05:15:27;;;;;;;14.40;7.30;;;;;;;23.63;54.28;101229.05;117490;1182;23541;-82
2021/08/14 05:17:55;;;;;;;14.20;6.70;;;;;;;23.87;52.94;101224.69;117490;1185;21878;-84
2021/08/14 05:20:23;;;;;;;9.30;6.80;;;;;;;24.12;52.62;101225.00;117506;1182;21859;-88
2021/08/14 05:23:11;;;;;;;9.00;6.60;;;;;;;24.44;52.50;101223.93;117633;1185;22896;-90
2021/08/14 05:25:59;;;;;;;9.00;6.60;;;;;;;24.68;52.27;101222.54;117579;1182;23678;-88
2021/08/14 05:28:27;;;;;;;13.80;7.40;;;;;;;24.83;52.04;101225.63;117425;1183;21871;-89
2021/08/14 05:30:55;;;;;;;9.40;6.30;;;;;;;25.02;51.50;101220.20;117571;1182;21871;-89
2021/08/14 05:33:24;;;;;;;12.00;7.10;;;;;;;25.20;51.11;101216.78;117465;1185;23539;-89
2021/08/14 05:35:52;;;;;;;10.10;6.80;;;;;;;25.37;50.71;101218.08;117508;1182;21897;-87
2021/08/14 05:38:21;;;;;;;9.00;6.50;;;;;;;25.55;50.26;101218.09;117578;1182;23538;-88
2021/08/14 05:40:49;;;;;;;15.30;6.50;;;;;;;25.75;50.01;101214.16;117599;1182;23640;-88
2021/08/14 05:43:17;;;;;;;12.80;7.10;;;;;;;25.95;49.55;101215.23;117359;1186;21856;-88
2021/08/14 05:45:46;;;;;;;10.50;6.40;;;;;;;26.17;49.06;101218.18;117429;1186;21864;-88
2021/08/14 05:48:15;;;;;;;11.50;6.70;;;;;;;26.50;48.13;101217.33;117518;1185;22976;-89
2021/08/14 05:50:44;;;;;;;9.30;6.20;;;;;;;26.78;47.56;101221.05;117428;1185;22836;-87
2021/08/14 05:53:32;;;;;;;10.20;6.20;;;;;;;27.07;46.66;101220.75;117548;1185;21861;-86
2021/08/14 05:56:00;;;;;;;10.20;5.80;;;;;;;27.28;46.17;101212.95;117425;1185;23046;-87
2021/08/14 05:58:30;;;;;;;9.70;5.80;;;;;;;27.48;45.62;101212.14;117544;1185;23560;-88
2021/08/14 06:00:58;;;;;;;9.70;6.20;;;;;;;27.64;45.24;101214.44;117621;1182;22030;-88
2021/08/14 06:03:32;;;;;;;9.40;5.90;;;;;;;27.82;44.69;101212.23;117316;1186;21852;-90
2021/08/14 06:06:00;;;;;;;9.30;5.90;;;;;;;27.96;44.70;101211.28;117525;1179;21864;-87
2021/08/14 06:08:31;;;;;;;11.60;5.70;;;;;;;28.05;44.52;101208.64;117439;1185;23611;-90
2021/08/14 06:10:59;;;;;;;9.20;5.50;;;;;;;28.19;44.06;101200.95;117524;1186;22908;-88
2021/08/14 06:13:27;;;;;;;7.80;5.80;;;;;;;28.40;43.42;101204.60;117590;1185;22511;-88
2021/08/14 06:15:55;;;;;;;8.20;5.90;;;;;;;28.61;43.14;101205.23;117451;1186;21864;-88
2021/08/14 06:18:24;;;;;;;11.50;5.70;;;;;;;28.81;42.93;101199.45;117536;1185;21863;-88
2021/08/14 06:21:11;;;;;;;10.00;5.80;;;;;;;29.01;42.40;101202.23;117618;1185;22913;-90
2021/08/14 06:23:40;;;;;;;9.10;6.10;;;;;;;29.15;42.29;101207.09;117622;1185;21858;-89
2021/08/14 06:26:13;;;;;;;9.00;5.60;;;;;;;29.35;42.32;101204.30;117663;1185;23560;-88
2021/08/14 06:28:41;;;;;;;8.00;5.50;;;;;;;29.92;41.29;101205.54;117433;1185;21927;-90
2021/08/14 06:31:10;;;;;;;10.20;5.10;;;;;;;30.14;40.47;101202.00;117698;1184;21863;-89
2021/08/14 06:33:39;;;;;;;9.60;5.20;;;;;;;30.74;39.65;101199.84;117722;1182;23538;-88
2021/08/14 06:36:07;;;;;;;8.70;4.80;;;;;;;30.52;40.06;101197.77;117652;1185;21855;-87
2021/08/14 06:38:37;;;;;;;11.10;5.40;;;;;;;30.53;40.07;101198.60;117686;1182;23541;-88
2021/08/14 06:41:05;;;;;;;8.40;5.20;;;;;;;30.65;39.84;101201.27;117614;1185;21868;-88
2021/08/14 06:43:33;;;;;;;10.60;4.80;;;;;;;30.85;39.55;101199.73;117654;1185;23423;-89
2021/08/14 06:46:01;;;;;;;8.40;5.20;;;;;;;31.08;39.22;101200.36;117429;1185;21859;-90
2021/08/14 06:48:35;;;;;;;7.10;4.80;;;;;;;31.28;38.99;101194.23;117388;1185;23000;-89
2021/08/14 06:51:03;;;;;;;12.50;4.90;;;;;;;31.48;38.06;101193.44;117679;1183;22891;-88
2021/08/14 06:53:43;;;;;;;16.20;5.60;;;;;;;31.58;37.44;101194.55;117645;1182;21863;-88
2021/08/14 06:56:31;;;;;;;12.30;4.80;;;;;;;31.66;37.16;101190.36;117478;1185;21908;-89
2021/08/14 06:59:00;;;;;;;9.60;4.80;;;;;;;31.88;36.85;101191.04;117677;1182;22929;-89
2021/08/14 07:01:28;;;;;;;9.50;4.20;;;;;;;32.05;35.85;101193.24;117326;1185;23606;-89
2021/08/14 07:04:01;;;;;;;8.50;4.40;;;;;;;32.26;35.42;101195.02;117634;1183;21870;-92
2021/08/14 07:06:44;;;;;;;10.50;4.20;;;;;;;32.46;35.43;101192.86;117509;1179;23349;-89
2021/08/14 07:09:12;;;;;;;6.80;3.90;;;;;;;32.70;35.34;101192.29;117484;1184;23608;-88
2021/08/14 07:11:45;;;;;;;8.30;4.10;;;;;;;32.90;34.95;101193.51;117415;1186;23918;-91
2021/08/14 07:14:33;;;;;;;8.00;4.00;;;;;;;33.07;34.25;101196.98;117626;1185;23560;-88
2021/08/14 07:17:01;;;;;;;6.30;4.10;;;;;;;33.25;34.16;101197.96;117522;1183;22357;-90
2021/08/14 07:19:32;;;;;;;7.80;4.00;;;;;;;33.45;33.83;101198.14;117607;1183;23531;-89
2021/08/14 07:22:20;;;;;;;6.80;4.10;;;;;;;33.68;33.63;101193.57;117639;1184;23648;-89
2021/08/14 07:24:48;;;;;;;7.60;4.30;;;;;;;33.84;33.43;101190.91;117622;1185;21874;-89
2021/08/14 07:27:16;;;;;;;6.80;4.30;;;;;;;34.03;32.98;101189.90;117320;1186;21887;-91
2021/08/14 07:29:44;;;;;;;5.70;3.60;;;;;;;34.11;32.47;101194.25;117403;1182;23553;-87
2021/08/14 07:32:13;;;;;;;5.40;3.10;;;;;;;34.22;31.68;101190.80;117391;1183;22328;-87
2021/08/14 07:34:41;;;;;;;8.90;3.60;;;;;;;34.37;31.42;101192.60;117434;1178;21859;-88
2021/08/14 07:37:10;;;;;;;7.30;3.30;;;;;;;34.53;31.43;101187.52;117651;1182;21896;-88
2021/08/14 07:39:39;;;;;;;4.40;3.20;;;;;;;34.71;31.03;101189.91;117378;1187;23544;-89
2021/08/14 07:42:07;;;;;;;5.30;3.50;;;;;;;34.81;30.61;101193.56;117570;1182;22930;-88
2021/08/14 07:44:35;;;;;;;6.30;3.50;;;;;;;34.84;30.67;101193.09;117595;1185;21863;-87
2021/08/14 07:47:15;;;;;;;6.80;3.30;;;;;;;35.10;29.96;101187.83;117430;1185;23630;-88
2021/08/14 07:49:44;;;;;;;5.00;2.80;;;;;;;35.43;29.62;101187.17;117610;1183;23290;-88
2021/08/14 07:52:12;;;;;;;7.20;2.80;;;;;;;35.67;29.21;101187.21;117486;1182;23656;-89
2021/08/14 07:54:40;;;;;;;5.70;2.90;;;;;;;35.94;28.98;101184.95;117542;1182;21860;-88
2021/08/14 07:57:08;;;;;;;5.20;2.80;;;;;;;36.16;28.65;101179.09;117660;1185;21855;-87
2021/08/14 07:59:36;;;;;;;3.90;3.10;;;;;;;36.27;27.83;101179.31;117594;1185;21868;-88
2021/08/14 08:02:04;;;;;;;4.60;2.80;;;;;;;36.35;27.50;101176.42;117600;1179;23443;-88
2021/08/14 08:04:33;;;;;;;6.10;2.60;;;;;;;36.48;27.33;101175.05;117577;1182;21891;-88
2021/08/14 08:07:10;;;;;;;4.30;2.90;;;;;;;36.61;26.91;101172.95;117600;1182;22973;-89
2021/08/14 08:09:40;;;;;;;5.70;2.80;;;;;;;36.76;26.57;101173.59;117628;1182;23535;-89
2021/08/14 08:12:11;;;;;;;4.80;2.80;;;;;;;36.98;26.36;101172.67;117577;1182;23560;-88
2021/08/14 08:14:40;;;;;;;4.50;3.00;;;;;;;37.01;26.28;101174.11;117659;1185;21858;-88
2021/08/14 08:17:08;;;;;;;4.90;2.60;;;;;;;37.11;26.25;101174.08;117411;1181;22915;-89
2021/08/14 08:19:38;;;;;;;4.40;2.60;;;;;;;37.18;25.96;101171.11;117610;1185;21951;-89
2021/08/14 08:22:12;;;;;;;4.60;3.00;;;;;;;37.26;25.68;101167.64;117632;1182;22804;-89
2021/08/14 08:24:40;;;;;;;5.60;2.80;;;;;;;37.41;25.60;101167.58;117474;1182;22667;-88
2021/08/14 08:27:08;;;;;;;5.60;3.20;;;;;;;37.56;25.21;101169.56;117501;1186;23598;-89
2021/08/14 08:29:42;;;;;;;4.20;2.70;;;;;;;37.72;25.13;101169.18;117383;1185;21874;-90
2021/08/14 08:32:13;;;;;;;6.00;5.10;;;;;;;37.81;25.08;101167.29;117641;1185;23534;-89
2021/08/14 08:34:45;;;;;;;;;;;;;;;37.82;25.22;101166.17;117671;1176;23442;-88
2021/08/14 08:37:22;;;;;;;6.20;3.50;;;;;;;37.83;24.87;101164.49;117469;1182;23644;-87
2021/08/14 08:39:51;;;;;;;9.00;6.10;;;;;;;37.57;24.66;101168.48;117593;1182;22912;-87
2021/08/14 08:42:24;;;;;;;5.90;4.90;;;;;;;37.26;24.97;101172.02;117635;1185;21858;-87
2021/08/14 08:44:55;;;;;;;;;;;;;;;37.06;25.14;101163.36;117592;1182;23707;-89
2021/08/14 08:47:23;;;;;;;6.20;3.20;;;;;;;36.95;24.96;101159.05;117638;1179;21853;-89
2021/08/14 08:49:53;;;;;;;6.30;3.70;;;;;;;36.92;24.88;101153.92;117535;1182;23544;-86
2021/08/14 08:52:22;;;;;;;5.10;3.00;;;;;;;37.00;25.26;101151.38;117890;1182;22109;-88
2021/08/14 08:54:51;;;;;;;5.80;3.40;;;;;;;37.10;25.45;101147.84;117368;1183;22625;-89
2021/08/14 08:57:20;;;;;;;6.70;3.80;;;;;;;37.14;25.26;101144.16;117407;1185;22234;-88
2021/08/14 08:59:48;;;;;;;5.40;3.10;;;;;;;37.23;25.20;101142.98;117649;1183;22151;-88
2021/08/14 09:02:24;;;;;;;6.30;2.90;;;;;;;37.35;24.92;101147.73;117571;1183;21921;-88
2021/08/14 09:05:14;;;;;;;4.40;2.90;;;;;;;37.49;24.64;101141.08;117417;1183;23448;-89
2021/08/14 09:07:43;;;;;;;;;;;;;;;37.63;24.34;101138.02;117579;1182;23541;-88
2021/08/14 09:10:14;;;;;;;4.70;2.70;;;;;;;37.86;24.04;101135.89;117561;1179;21891;-86
2021/08/14 09:12:44;;;;;;;3.60;2.50;;;;;;;38.02;23.69;101136.27;117551;1185;21970;-86
2021/08/14 09:15:19;;;;;;;3.80;2.70;;;;;;;37.98;23.44;101136.55;117676;1182;23524;-86
2021/08/14 09:18:10;;;;;;;5.70;3.10;;;;;;;37.73;23.10;101136.71;117609;1185;23459;-87
2021/08/14 09:20:47;;;;;;;5.60;2.80;;;;;;;37.55;23.44;101132.24;117394;1186;22912;-87
2021/08/14 09:23:21;;;;;;;5.30;2.80;;;;;;;37.52;23.28;101132.95;117610;1185;21873;-87
2021/08/14 09:25:53;;;;;;;4.20;3.10;;;;;;;37.54;23.07;101134.09;117417;1182;21858;-87
2021/08/14 09:28:35;;;;;;;4.40;2.70;;;;;;;37.57;23.13;101130.50;117362;1182;23538;-87
2021/08/14 09:31:05;;;;;;;4.80;3.10;;;;;;;37.68;23.11;101124.41;117657;1182;22188;-87
2021/08/14 09:33:35;;;;;;;5.80;2.50;;;;;;;37.79;23.33;101117.52;117637;1185;21855;-87
2021/08/14 09:36:11;;;;;;;4.90;2.60;;;;;;;38.07;23.30;101119.55;117604;1182;22268;-86
2021/08/14 09:38:49;;;;;;;5.10;2.90;;;;;;;38.16;22.58;101127.77;117415;1185;21855;-86
2021/08/14 09:41:22;;;;;;;4.80;2.70;;;;;;;38.07;22.16;101126.19;117625;1185;21858;-88
2021/08/14 09:43:56;;;;;;;4.10;3.10;;;;;;;37.98;22.41;101118.20;117475;1182;23550;-87
2021/08/14 09:46:39;;;;;;;5.90;3.00;;;;;;;38.01;22.37;101118.80;117462;1185;23538;-87
2021/08/14 09:49:07;;;;;;;5.30;2.70;;;;;;;38.15;22.23;101117.09;117593;1182;23567;-87
2021/08/14 09:51:36;;;;;;;5.90;2.70;;;;;;;38.38;22.43;101114.54;117466;1186;21857;-87
2021/08/14 09:54:04;;;;;;;4.20;2.80;;;;;;;38.69;22.21;101112.89;117371;1187;22809;-87
2021/08/14 09:56:35;;;;;;;9.60;3.50;;;;;;;39.07;21.90;101109.23;117628;1185;21858;-87
2021/08/14 09:59:04;;;;;;;6.60;3.30;;;;;;;39.26;21.72;101108.98;117602;1182;22915;-87
2021/08/14 10:01:36;;;;;;;4.40;2.80;;;;;;;39.43;20.94;101106.12;117647;1185;22912;-87
2021/08/14 10:04:17;;;;;;;6.80;3.40;;;;;;;39.57;20.66;101101.81;117661;1185;23590;-88
2021/08/14 10:06:46;;;;;;;4.50;2.90;;;;;;;39.68;20.85;101097.80;117567;1184;23538;-88
2021/08/14 10:09:15;;;;;;;4.20;3.30;;;;;;;39.87;20.94;101099.34;117438;1185;21855;-87
2021/08/14 10:11:45;;;;;;;5.30;2.90;;;;;;;40.01;20.92;101101.55;117533;1185;21861;-87
2021/08/14 10:14:33;;;;;;;6.20;3.70;;;;;;;40.18;20.70;101099.05;117544;1185;23426;-86
2021/08/14 10:17:02;;;;;;;4.60;3.70;;;;;;;40.20;20.05;101088.50;117565;1182;23578;-87
2021/08/14 10:19:30;;;;;;;4.30;3.00;;;;;;;39.88;19.84;101088.31;117566;1185;21977;-87
2021/08/14 10:21:59;;;;;;;4.90;3.20;;;;;;;39.59;19.76;101090.73;117382;1185;22650;-88
2021/08/14 10:24:41;;;;;;;6.40;3.30;;;;;;;39.43;19.98;101088.09;117575;1182;23573;-88
2021/08/14 10:27:15;;;;;;;4.40;2.90;;;;;;;39.26;20.08;101087.02;117383;1184;23564;-88
2021/08/14 10:29:46;;;;;;;5.00;2.90;;;;;;;39.04;20.43;101090.91;117443;1185;22478;-88
2021/08/14 10:32:30;;;;;;;4.90;3.10;;;;;;;38.95;20.46;101091.55;117541;1182;21858;-85
2021/08/14 10:35:13;;;;;;;4.40;3.20;;;;;;;38.83;20.33;101086.44;117543;1185;21877;-87
2021/08/14 10:37:45;;;;;;;5.30;3.00;;;;;;;38.80;20.56;101081.86;117535;1182;21861;-87
2021/08/14 10:40:18;;;;;;;4.10;3.10;;;;;;;38.90;20.93;101080.85;117519;1179;23540;-88
2021/08/14 10:42:58;;;;;;;6.10;3.50;;;;;;;39.01;21.06;101075.98;117588;1182;21879;-87
2021/08/14 10:45:26;;;;;;;4.40;3.20;;;;;;;38.85;21.21;101079.97;117526;1185;21868;-87
2021/08/14 10:48:06;;;;;;;5.30;3.20;;;;;;;39.00;21.54;101075.98;117582;1182;23540;-85
2021/08/14 10:50:35;;;;;;;6.50;3.90;;;;;;;39.19;21.15;101070.25;117549;1185;22629;-87
2021/08/14 10:53:17;;;;;;;4.90;3.60;;;;;;;39.37;20.66;101072.34;117541;1185;21871;-86
2021/08/14 10:55:55;;;;;;;6.40;3.70;;;;;;;39.39;20.54;101067.59;117315;1186;22153;-86
2021/08/14 10:58:29;;;;;;;5.30;3.40;;;;;;;39.35;20.45;101068.55;117526;1185;23538;-87
2021/08/14 11:01:03;;;;;;;6.90;3.40;;;;;;;39.44;20.81;101064.89;117326;1178;23499;-88
2021/08/14 11:03:35;;;;;;;5.40;3.80;;;;;;;39.72;20.93;101062.92;117505;1185;23697;-86
2021/08/14 11:06:24;;;;;;;5.70;3.60;;;;;;;39.95;20.91;101063.23;117339;1185;21862;-86
2021/08/14 11:09:24;;;;;;;6.00;4.00;;;;;;;40.06;20.83;101062.20;117528;1185;22135;-86
2021/08/14 11:12:30;;;;;;;;;;;;;;;40.10;20.95;101062.11;117512;1185;21864;-86
2021/08/14 11:15:17;;;;;;;14.90;11.20;;;;;;;40.16;20.78;101062.79;117609;1182;21894;-87
2021/08/14 11:17:48;;;;;;;20.00;9.90;;;;;;;40.24;20.58;101062.63;117539;1182;21858;-86
2021/08/14 11:20:39;;;;;;;15.90;9.90;;;;;;;40.42;20.24;101054.05;117552;1185;21863;-86
2021/08/14 11:23:27;;;;;;;17.50;5.40;;;;;;;40.52;20.29;101052.77;117422;1182;23528;-87
2021/08/14 11:25:56;;;;;;;33.20;7.60;;;;;;;40.73;20.05;101051.77;117550;1184;22908;-85
2021/08/14 11:28:25;;;;;;;160.30;19.70;;;;;;;40.84;20.05;101049.79;117535;1182;22478;-85
2021/08/14 11:30:57;;;;;;;64.90;9.40;;;;;;;40.70;19.99;101047.75;117536;1182;22899;-87
2021/08/14 11:33:25;;;;;;;22.10;5.90;;;;;;;40.44;20.13;101043.58;117258;1184;23622;-83
2021/08/14 11:36:07;;;;;;;14.70;5.10;;;;;;;40.38;20.52;101044.30;117555;1179;23564;-85